Time;durP1;ratioP1;P1;durP2;ratioP2;P2;SDS_P1;SDS_P2;PMS_P1;PMS_P2;Temp;Humidity;BMP_temperature;BMP_pressure;BME280_temperature;BME280_humidity;BME280_pressure;Samples;Min_cycle;Max_cycle;Signal;HPM_P1;HPM_P2
2022/07/21 00:00:45;;;;;;;27.58;15.10;;;;;;;16.81;100.00;101789.09;5254538;28;20393;-72
2022/07/21 00:03:16;;;;;;;32.83;14.20;;;;;;;16.78;100.00;101775.94;5252529;28;20031;-73
2022/07/21 00:05:46;;;;;;;30.35;15.70;;;;;;;16.74;100.00;101783.59;5237990;28;20107;-72
2022/07/21 00:08:17;;;;;;;23.40;15.32;;;;;;;16.70;100.00;101787.66;5258394;28;20035;-73
2022/07/21 00:10:48;;;;;;;34.53;17.15;;;;;;;16.69;100.00;101785.97;5246992;28;20024;-72
2022/07/21 00:13:19;;;;;;;28.73;14.93;;;;;;;16.67;100.00;101779.06;5266010;28;20512;-73
2022/07/21 00:15:49;;;;;;;32.17;15.63;;;;;;;16.66;100.00;101789.03;5249579;28;20068;-73
2022/07/21 00:18:21;;;;;;;32.33;16.40;;;;;;;16.68;100.00;101791.59;5255349;28;20020;-72
2022/07/21 00:20:52;;;;;;;29.20;15.13;;;;;;;16.69;100.00;101782.41;5248705;28;20016;-72
2022/07/21 00:23:24;;;;;;;33.85;16.15;;;;;;;16.73;100.00;101779.19;5256765;28;20028;-72
2022/07/21 00:25:55;;;;;;;29.65;16.00;;;;;;;16.82;100.00;101779.97;5260009;28;20514;-73
2022/07/21 00:28:25;;;;;;;30.02;16.75;;;;;;;16.90;100.00;101789.88;5258181;28;20154;-73
2022/07/21 00:30:56;;;;;;;28.77;15.90;;;;;;;16.96;100.00;101778.28;5265735;28;20405;-73
2022/07/21 00:33:26;;;;;;;29.15;16.48;;;;;;;17.00;100.00;101782.31;5265384;28;20030;-72
2022/07/21 00:35:56;;;;;;;28.30;15.90;;;;;;;17.04;100.00;101781.75;5244763;28;20161;-72
2022/07/21 00:38:27;;;;;;;25.70;15.55;;;;;;;17.06;100.00;101778.84;5260190;28;20024;-72
2022/07/21 00:40:58;;;;;;;33.90;16.52;;;;;;;17.07;100.00;101783.25;5256597;28;20024;-72
2022/07/21 00:43:29;;;;;;;28.08;17.33;;;;;;;17.10;100.00;101788.28;5258163;28;20021;-72
2022/07/21 00:45:59;;;;;;;31.25;17.35;;;;;;;17.14;100.00;101777.94;5255100;28;20150;-72
2022/07/21 00:48:30;;;;;;;30.60;16.92;;;;;;;17.17;100.00;101777.53;5265262;28;20039;-72
2022/07/21 00:51:00;;;;;;;25.08;15.60;;;;;;;17.22;100.00;101775.97;5265904;28;20378;-72
2022/07/21 00:53:31;;;;;;;31.80;16.77;;;;;;;17.26;100.00;101779.97;5246412;28;20488;-72
2022/07/21 00:56:02;;;;;;;32.97;17.08;;;;;;;17.29;100.00;101776.88;5243894;28;20021;-72
2022/07/21 00:58:33;;;;;;;31.00;18.55;;;;;;;17.29;100.00;101782.31;5244705;28;20025;-73
2022/07/21 01:01:03;;;;;;;35.55;17.58;;;;;;;17.30;100.00;101778.56;5258464;28;20059;-72
2022/07/21 01:03:34;;;;;;;28.77;17.63;;;;;;;17.31;100.00;101777.53;5256927;28;20171;-72
2022/07/21 01:06:05;;;;;;;34.22;17.27;;;;;;;17.32;100.00;101770.25;5260771;28;20485;-72
2022/07/21 01:08:38;;;;;;;33.47;17.95;;;;;;;17.34;100.00;101770.91;5265512;28;20050;-72
2022/07/21 01:11:20;;;;;;;41.65;19.13;;;;;;;17.33;100.00;101770.06;5265768;28;20024;-72
2022/07/21 01:14:11;;;;;;;31.80;18.17;;;;;;;17.38;100.00;101771.38;5250664;28;20048;-72
2022/07/21 01:16:51;;;;;;;29.75;17.80;;;;;;;17.37;100.00;101773.25;5265513;28;20031;-72
2022/07/21 01:19:25;;;;;;;;;;;;;;;17.40;100.00;101777.44;5251942;28;20024;-72
2022/07/21 01:22:05;;;;;;;28.98;18.15;;;;;;;17.43;100.00;101782.50;5244698;28;19909;-72
2022/07/21 01:24:35;;;;;;;28.35;17.35;;;;;;;17.44;100.00;101785.00;5253122;28;20078;-72
2022/07/21 01:27:18;;;;;;;26.30;16.52;;;;;;;17.49;100.00;101779.03;5251589;28;20078;-72
2022/07/21 01:29:54;;;;;;;27.90;17.13;;;;;;;17.50;100.00;101772.56;5265835;28;20410;-72
2022/07/21 01:32:25;;;;;;;29.33;16.33;;;;;;;17.52;100.00;101775.91;5246297;28;20027;-72
2022/07/21 01:34:56;;;;;;;30.65;16.73;;;;;;;17.52;100.00;101778.63;5257715;28;20028;-72
2022/07/21 01:37:30;;;;;;;27.30;14.98;;;;;;;17.52;100.00;101784.06;5257762;28;20111;-72
2022/07/21 01:42:49;;;;;;;25.00;14.52;;;;;;;17.51;100.00;101783.22;5244437;28;20020;-72
2022/07/21 01:45:22;;;;;;;32.03;14.77;;;;;;;17.52;100.00;101786.75;5249094;28;20028;-73
2022/07/21 01:47:52;;;;;;;26.50;14.20;;;;;;;17.48;100.00;101790.91;5252042;28;20039;-72
2022/07/21 01:50:26;;;;;;;30.95;13.85;;;;;;;17.46;100.00;101784.81;5264063;28;20028;-71
2022/07/21 01:52:58;;;;;;;24.15;13.40;;;;;;;17.40;100.00;101789.13;5251865;28;20028;-72
2022/07/21 01:55:29;;;;;;;29.50;14.48;;;;;;;17.37;100.00;101783.22;5262415;28;20106;-73
2022/07/21 01:58:01;;;;;;;26.85;13.23;;;;;;;17.33;100.00;101780.06;5252680;28;20070;-72
2022/07/21 02:00:31;;;;;;;28.58;12.90;;;;;;;17.29;100.00;101789.63;5253802;28;20127;-72
2022/07/21 02:03:02;;;;;;;27.27;14.55;;;;;;;17.24;100.00;101786.63;5256032;28;20021;-73
2022/07/21 02:05:33;;;;;;;25.33;14.27;;;;;;;17.19;100.00;101784.47;5249218;28;20023;-72
2022/07/21 02:08:03;;;;;;;24.75;13.88;;;;;;;17.18;100.00;101784.66;5263030;28;20111;-72
2022/07/21 02:10:35;;;;;;;26.85;14.57;;;;;;;17.15;100.00;101793.16;5260285;28;20458;-72
2022/07/21 02:13:06;;;;;;;26.05;13.60;;;;;;;17.12;100.00;101788.09;5247579;28;20541;-73
2022/07/21 02:15:37;;;;;;;23.75;13.10;;;;;;;17.08;100.00;101791.19;5247326;28;20021;-72
2022/07/21 02:18:10;;;;;;;28.98;13.70;;;;;;;17.05;100.00;101788.00;5247791;28;20032;-72
2022/07/21 02:20:41;;;;;;;20.17;12.32;;;;;;;17.02;100.00;101783.81;5250320;28;20046;-73
2022/07/21 02:23:12;;;;;;;24.38;14.07;;;;;;;16.99;100.00;101789.59;5258373;28;20082;-73
2022/07/21 02:25:43;;;;;;;22.45;12.77;;;;;;;16.96;100.00;101781.81;5246945;28;20020;-72
2022/07/21 02:28:14;;;;;;;26.48;12.85;;;;;;;16.95;100.00;101782.03;5258719;28;20087;-72
2022/07/21 02:30:45;;;;;;;23.63;12.20;;;;;;;16.95;100.00;101785.56;5263363;28;20052;-72
2022/07/21 02:33:15;;;;;;;21.15;13.35;;;;;;;16.94;100.00;101780.34;5260721;28;20028;-72
2022/07/21 02:35:46;;;;;;;24.80;13.07;;;;;;;16.94;100.00;101783.91;5247032;28;20305;-72
2022/07/21 02:38:16;;;;;;;27.27;12.65;;;;;;;16.95;100.00;101768.47;5247106;28;20021;-72
2022/07/21 02:40:47;;;;;;;26.38;14.10;;;;;;;16.96;100.00;101767.44;5255799;28;20023;-72
2022/07/21 02:43:18;;;;;;;25.65;12.90;;;;;;;16.97;100.00;101774.56;5254491;28;20024;-72
2022/07/21 02:45:48;;;;;;;23.33;12.02;;;;;;;16.96;100.00;101770.16;5258225;28;20028;-72
2022/07/21 02:48:19;;;;;;;22.25;11.57;;;;;;;16.95;100.00;101760.34;5247397;28;20070;-72
2022/07/21 02:50:50;;;;;;;24.88;12.27;;;;;;;16.95;100.00;101757.63;5256994;28;20027;-72
2022/07/21 02:53:22;;;;;;;25.23;12.43;;;;;;;16.97;100.00;101753.72;5263268;28;20025;-72
2022/07/21 02:55:52;;;;;;;22.05;11.07;;;;;;;16.99;100.00;101756.22;5254127;28;20394;-72
2022/07/21 02:58:25;;;;;;;23.33;11.38;;;;;;;16.99;100.00;101746.22;5266489;28;20024;-72
2022/07/21 03:00:59;;;;;;;24.83;12.43;;;;;;;17.00;100.00;101749.78;5253667;28;20029;-72
2022/07/21 03:03:33;;;;;;;26.20;12.43;;;;;;;17.00;100.00;101752.50;5246842;28;20028;-72
2022/07/21 03:06:04;;;;;;;22.75;13.18;;;;;;;16.99;100.00;101753.53;5262804;28;20077;-72
2022/07/21 03:08:35;;;;;;;24.63;11.95;;;;;;;16.99;100.00;101750.81;5267497;28;20440;-72
2022/07/21 03:11:06;;;;;;;23.85;11.82;;;;;;;16.99;100.00;101750.81;5267579;28;20024;-72
2022/07/21 03:13:36;;;;;;;21.67;11.80;;;;;;;17.00;100.00;101749.78;5267500;28;20038;-72
2022/07/21 03:16:07;;;;;;;23.42;12.30;;;;;;;16.99;100.00;101745.38;5266466;28;20028;-72
2022/07/21 03:18:37;;;;;;;28.25;13.07;;;;;;;16.98;100.00;101746.44;5267526;28;20038;-72
2022/07/21 03:21:08;;;;;;;28.58;11.93;;;;;;;16.97;100.00;101755.59;5259024;28;20385;-72
2022/07/21 03:23:38;;;;;;;27.65;12.27;;;;;;;16.95;100.00;101753.03;5253178;28;20444;-72
2022/07/21 03:26:09;;;;;;;23.63;11.80;;;;;;;16.93;100.00;101740.72;5245937;28;20421;-72
2022/07/21 03:28:41;;;;;;;24.60;11.13;;;;;;;16.93;100.00;101751.56;5260950;28;20050;-72
2022/07/21 03:31:11;;;;;;;23.52;12.13;;;;;;;16.92;100.00;101757.97;5258270;28;20025;-72
2022/07/21 03:33:42;;;;;;;24.90;11.07;;;;;;;16.89;100.00;101750.25;5248071;28;20017;-72
2022/07/21 03:36:12;;;;;;;22.75;12.23;;;;;;;16.88;100.00;101748.56;5257010;28;20054;-72
2022/07/21 03:38:42;;;;;;;19.85;11.23;;;;;;;16.86;100.00;101766.88;5245543;28;20058;-73
2022/07/21 03:41:13;;;;;;;19.02;10.30;;;;;;;16.83;100.00;101763.50;5258004;28;20032;-73
2022/07/21 03:43:43;;;;;;;19.15;11.15;;;;;;;16.82;100.00;101755.56;5267015;28;20030;-72
2022/07/21 03:46:14;;;;;;;26.17;11.50;;;;;;;16.79;100.00;101759.47;5266797;28;20382;-72
2022/07/21 03:48:44;;;;;;;25.05;11.40;;;;;;;16.77;100.00;101756.13;5266070;28;20073;-73
2022/07/21 03:51:15;;;;;;;21.73;10.27;;;;;;;16.76;100.00;101750.88;5253265;28;20020;-72
2022/07/21 03:53:45;;;;;;;21.95;11.25;;;;;;;16.73;100.00;101757.53;5258133;28;20020;-73
2022/07/21 03:56:16;;;;;;;27.23;11.18;;;;;;;16.73;100.00;101757.53;5246287;28;20052;-72
2022/07/21 03:58:46;;;;;;;21.77;11.48;;;;;;;16.73;100.00;101765.66;5266650;28;20032;-72
2022/07/21 04:01:17;;;;;;;23.45;11.02;;;;;;;16.77;100.00;101768.84;5264216;28;20028;-72
2022/07/21 04:03:47;;;;;;;25.75;11.18;;;;;;;16.80;100.00;101774.72;5245585;28;20027;-72
2022/07/21 04:06:18;;;;;;;23.98;11.38;;;;;;;16.84;100.00;101775.19;5244918;28;20033;-72
2022/07/21 04:08:48;;;;;;;20.48;10.27;;;;;;;16.91;100.00;101783.41;5245927;28;20024;-73
2022/07/21 04:11:19;;;;;;;23.05;10.32;;;;;;;17.00;100.00;101785.00;5265716;28;20024;-73
2022/07/21 04:13:49;;;;;;;20.00;10.18;;;;;;;17.05;100.00;101782.59;5252544;28;20236;-72
2022/07/21 04:16:20;;;;;;;28.65;10.88;;;;;;;17.11;100.00;101786.41;5266134;28;20043;-72
2022/07/21 04:18:50;;;;;;;26.27;10.80;;;;;;;17.15;100.00;101783.16;5252762;28;20108;-71
2022/07/21 04:21:21;;;;;;;18.20;10.82;;;;;;;17.22;100.00;101784.09;5249775;28;20020;-72
2022/07/21 04:23:51;;;;;;;21.45;11.45;;;;;;;17.28;100.00;101777.94;5261807;28;20500;-71
2022/07/21 04:26:22;;;;;;;22.33;10.63;;;;;;;17.31;100.00;101780.25;5262145;28;20023;-71
2022/07/21 04:28:53;;;;;;;23.45;9.85;;;;;;;17.35;100.00;101769.88;5257807;28;20062;-71
2022/07/21 04:31:24;;;;;;;24.95;11.02;;;;;;;17.40;100.00;101770.13;5257564;28;20051;-71
2022/07/21 04:33:54;;;;;;;24.63;11.18;;;;;;;17.45;100.00;101766.88;5246735;28;20025;-71
2022/07/21 04:36:24;;;;;;;28.17;12.50;;;;;;;17.47;100.00;101762.94;5244768;28;20673;-71
2022/07/21 04:38:55;;;;;;;27.40;12.00;;;;;;;17.49;100.00;101766.31;5251116;28;20085;-71
2022/07/21 04:41:25;;;;;;;30.00;13.10;;;;;;;17.54;100.00;101761.16;5265384;28;20012;-71
2022/07/21 04:43:56;;;;;;;22.52;12.98;;;;;;;17.58;100.00;101769.75;5252851;28;20047;-71
2022/07/21 04:46:26;;;;;;;28.48;13.57;;;;;;;17.59;100.00;101768.72;5262882;28;20024;-71
2022/07/21 04:48:57;;;;;;;30.08;13.30;;;;;;;17.63;100.00;101771.91;5242036;28;20080;-71
2022/07/21 04:51:27;;;;;;;26.88;14.20;;;;;;;17.69;100.00;101773.84;5265615;28;20505;-71
2022/07/21 04:53:58;;;;;;;31.42;13.88;;;;;;;17.77;100.00;101774.63;5265705;28;20028;-71
2022/07/21 04:56:28;;;;;;;28.75;14.77;;;;;;;17.78;100.00;101775.44;5246507;28;20016;-71
2022/07/21 04:58:59;;;;;;;30.33;15.25;;;;;;;17.79;100.00;101774.41;5265661;28;20093;-71
2022/07/21 05:01:30;;;;;;;33.13;15.80;;;;;;;17.79;100.00;101771.69;5260293;28;20048;-71
2022/07/21 05:04:00;;;;;;;33.08;16.67;;;;;;;17.81;100.00;101769.63;5244518;28;20026;-71
2022/07/21 05:06:31;;;;;;;39.80;16.70;;;;;;;17.82;100.00;101774.00;5249845;28;20110;-71
2022/07/21 05:09:02;;;;;;;35.53;15.93;;;;;;;17.87;100.00;101774.28;5265512;28;20024;-71
2022/07/21 05:11:32;;;;;;;34.33;16.92;;;;;;;17.88;100.00;101767.00;5252408;28;20028;-71
2022/07/21 05:14:03;;;;;;;27.70;16.48;;;;;;;17.86;100.00;101773.44;5263400;28;20028;-72
2022/07/21 05:16:33;;;;;;;33.20;17.95;;;;;;;17.93;100.00;101776.25;5244442;28;20036;-71
2022/07/21 05:19:04;;;;;;;32.10;16.95;;;;;;;17.99;100.00;101774.63;5244671;28;20020;-71
2022/07/21 05:21:34;;;;;;;28.60;16.27;;;;;;;18.02;100.00;101771.50;5243424;28;20028;-71
2022/07/21 05:24:05;;;;;;;33.97;15.50;;;;;;;18.07;100.00;101772.66;5244274;28;20025;-71
2022/07/21 05:26:36;;;;;;;33.20;16.83;;;;;;;18.05;100.00;101773.84;5250542;28;20028;-71
2022/07/21 05:29:06;;;;;;;33.85;17.52;;;;;;;18.11;100.00;101763.06;5263472;28;20497;-71
2022/07/21 05:31:37;;;;;;;30.77;16.60;;;;;;;18.15;100.00;101771.66;5252638;28;20544;-71
2022/07/21 05:34:07;;;;;;;39.03;16.85;;;;;;;18.22;100.00;101764.41;5250720;28;20034;-70
2022/07/21 05:36:38;;;;;;;34.63;15.80;;;;;;;18.37;100.00;101761.63;5264740;28;20020;-71
2022/07/21 05:39:09;;;;;;;32.05;16.55;;;;;;;18.49;100.00;101761.94;5253425;28;20047;-71
2022/07/21 05:41:39;;;;;;;28.70;16.20;;;;;;;18.51;100.00;101757.16;5253993;28;20021;-71
2022/07/21 05:44:10;;;;;;;39.63;17.63;;;;;;;18.48;100.00;101755.69;5247983;28;20521;-71
2022/07/21 05:46:40;;;;;;;40.00;18.25;;;;;;;18.41;100.00;101760.19;5262026;28;20069;-71
2022/07/21 05:49:10;;;;;;;39.33;19.70;;;;;;;18.38;100.00;101768.75;5248273;28;20029;-71
2022/07/21 05:51:41;;;;;;;34.95;18.88;;;;;;;18.28;100.00;101757.38;5264371;28;20031;-71
2022/07/21 05:54:11;;;;;;;38.08;19.52;;;;;;;18.20;100.00;101766.50;5257311;28;20032;-72
2022/07/21 05:56:42;;;;;;;36.05;19.42;;;;;;;18.11;100.00;101773.06;5259027;28;20028;-72
2022/07/21 05:59:13;;;;;;;39.30;20.85;;;;;;;18.08;100.00;101766.19;5256512;28;20482;-72
2022/07/21 06:01:43;;;;;;;41.10;19.67;;;;;;;18.07;100.00;101771.78;5254608;28;20481;-72
2022/07/21 06:04:14;;;;;;;34.95;19.45;;;;;;;18.04;100.00;101777.63;5240801;28;20054;-72
2022/07/21 06:06:44;;;;;;;44.80;19.98;;;;;;;17.98;100.00;101779.22;5260346;28;20024;-72
2022/07/21 06:09:15;;;;;;;42.40;20.05;;;;;;;17.93;100.00;101781.69;5261398;28;20023;-72
2022/07/21 06:11:45;;;;;;;35.67;18.88;;;;;;;17.89;100.00;101788.53;5257601;28;20060;-72
2022/07/21 06:14:16;;;;;;;38.25;20.40;;;;;;;17.84;100.00;101788.25;5266607;28;20024;-72
2022/07/21 06:16:46;;;;;;;40.55;20.10;;;;;;;17.79;100.00;101787.97;5268530;28;20062;-72
2022/07/21 06:19:17;;;;;;;34.42;19.88;;;;;;;17.74;100.00;101796.69;5254854;28;20477;-72
2022/07/21 06:21:48;;;;;;;41.95;20.27;;;;;;;17.70;100.00;101795.34;5260301;28;20020;-72
2022/07/21 06:24:21;;;;;;;46.58;22.27;;;;;;;17.69;100.00;101793.69;5262076;28;20099;-72
2022/07/21 06:26:55;;;;;;;42.38;20.98;;;;;;;17.69;100.00;101798.28;5247442;28;20501;-72
2022/07/21 06:29:25;;;;;;;39.47;22.25;;;;;;;17.68;100.00;101802.84;5247808;28;20032;-72
2022/07/21 06:31:56;;;;;;;41.40;21.48;;;;;;;17.65;100.00;101805.94;5249146;28;20051;-72
2022/07/21 06:34:26;;;;;;;38.58;20.45;;;;;;;17.68;100.00;101810.16;5267750;28;20032;-72
2022/07/21 06:36:57;;;;;;;37.47;20.55;;;;;;;17.64;100.00;101811.56;5251792;28;20452;-71
2022/07/21 06:39:27;;;;;;;33.85;21.27;;;;;;;17.58;100.00;101816.72;5247580;28;20298;-71
2022/07/21 06:41:58;;;;;;;44.17;22.27;;;;;;;17.63;100.00;101802.59;5260622;28;20123;-71
2022/07/21 06:44:28;;;;;;;43.97;21.25;;;;;;;17.60;100.00;101816.53;5258135;28;20024;-71
2022/07/21 06:47:04;;;;;;;41.85;22.15;;;;;;;17.56;100.00;101826.91;5262721;28;20030;-71
2022/07/21 06:49:34;;;;;;;45.95;22.98;;;;;;;17.57;100.00;101817.75;5260525;28;20030;-71
2022/07/21 06:52:05;;;;;;;44.45;21.92;;;;;;;17.59;100.00;101826.53;5259407;28;20478;-71
2022/07/21 06:54:35;;;;;;;44.55;23.90;;;;;;;17.58;100.00;101830.28;5261166;28;20028;-71
2022/07/21 06:57:06;;;;;;;53.70;24.20;;;;;;;17.60;100.00;101830.94;5261135;28;20051;-71
2022/07/21 06:59:37;;;;;;;38.33;22.80;;;;;;;17.64;100.00;101828.69;5266142;28;20036;-71
2022/07/21 07:02:07;;;;;;;45.30;24.67;;;;;;;17.67;100.00;101835.59;5255531;28;20031;-72
2022/07/21 07:04:38;;;;;;;53.75;25.10;;;;;;;17.60;100.00;101828.22;5235246;28;20099;-72
2022/07/21 07:07:08;;;;;;;44.03;24.98;;;;;;;17.61;100.00;101829.88;5258280;28;20477;-72
2022/07/21 07:09:40;;;;;;;49.67;25.58;;;;;;;17.60;100.00;101833.63;5254120;28;20082;-72
2022/07/21 07:12:11;;;;;;;44.85;23.95;;;;;;;17.61;100.00;101837.19;5266677;28;22409;-72
2022/07/21 07:14:41;;;;;;;47.28;24.52;;;;;;;17.60;100.00;101836.34;5246689;28;20032;-72
2022/07/21 07:17:18;;;;;;;49.75;24.30;;;;;;;17.55;100.00;101835.25;5260141;28;20054;-72
2022/07/21 07:19:49;;;;;;;49.90;25.58;;;;;;;17.53;100.00;101834.59;5263698;28;20029;-71
2022/07/21 07:22:20;;;;;;;42.83;23.85;;;;;;;17.50;100.00;101833.09;5248931;28;20485;-72
2022/07/21 07:24:50;;;;;;;52.22;25.50;;;;;;;17.49;100.00;101836.84;5266945;28;20034;-72
2022/07/21 07:27:21;;;;;;;56.10;25.80;;;;;;;17.45;100.00;101829.25;5253175;28;20028;-71
2022/07/21 07:29:51;;;;;;;52.33;24.17;;;;;;;17.43;100.00;101837.59;5266867;28;20055;-72
2022/07/21 07:32:22;;;;;;;46.10;23.40;;;;;;;17.42;100.00;101837.75;5253164;28;20028;-73
2022/07/21 07:34:52;;;;;;;47.33;22.80;;;;;;;17.39;100.00;101838.16;5254405;28;20108;-73
2022/07/21 07:37:23;;;;;;;40.47;21.60;;;;;;;17.35;100.00;101838.50;5266099;28;20051;-73
2022/07/21 07:39:53;;;;;;;40.58;21.13;;;;;;;17.31;100.00;101841.78;5267224;28;20028;-73
2022/07/21 07:42:24;;;;;;;32.25;17.52;;;;;;;17.25;100.00;101834.41;5246171;28;20079;-73
2022/07/21 07:44:54;;;;;;;38.30;18.70;;;;;;;17.22;100.00;101834.75;5258917;28;20040;-73
2022/07/21 07:47:25;;;;;;;40.33;19.77;;;;;;;17.19;100.00;101833.28;5252750;28;20044;-73
2022/07/21 07:49:56;;;;;;;38.75;19.45;;;;;;;17.20;100.00;101840.38;5266894;28;20290;-73
2022/07/21 07:52:28;;;;;;;38.83;20.67;;;;;;;17.18;100.00;101838.91;5266254;28;20031;-73
2022/07/21 07:54:58;;;;;;;40.35;22.52;;;;;;;17.18;100.00;101849.75;5252806;28;20146;-73
2022/07/21 07:57:29;;;;;;;51.25;25.02;;;;;;;17.19;100.00;101857.69;5259911;28;20035;-73
2022/07/21 07:59:59;;;;;;;53.15;24.92;;;;;;;17.21;100.00;101852.91;5265353;28;20055;-73
2022/07/21 08:02:30;;;;;;;67.72;27.25;;;;;;;17.19;100.00;101860.38;5266167;28;20039;-73
2022/07/21 08:05:00;;;;;;;83.70;33.25;;;;;;;17.19;100.00;101852.25;5238884;28;20073;-73
2022/07/21 08:07:31;;;;;;;75.85;31.35;;;;;;;17.19;100.00;101854.97;5251435;28;20039;-73
2022/07/21 08:10:02;;;;;;;74.30;31.73;;;;;;;17.23;100.00;101855.44;5254644;28;20035;-73
2022/07/21 08:12:33;;;;;;;88.45;35.55;;;;;;;17.27;100.00;101856.72;5266110;28;20028;-73
2022/07/21 08:15:05;;;;;;;86.70;35.63;;;;;;;17.30;100.00;101859.09;5265858;28;20565;-73
2022/07/21 08:17:36;;;;;;;84.43;35.58;;;;;;;17.34;100.00;101858.53;5261662;28;20107;-73
2022/07/21 08:20:07;;;;;;;74.18;32.75;;;;;;;17.34;100.00;101857.69;5245232;28;20100;-73
2022/07/21 08:22:37;;;;;;;70.20;31.05;;;;;;;17.34;100.00;101857.69;5265021;28;20107;-73
2022/07/21 08:25:08;;;;;;;75.38;31.65;;;;;;;17.35;100.00;101864.78;5265937;28;20049;-73
2022/07/21 08:27:41;;;;;;;70.60;29.25;;;;;;;17.38;100.00;101861.72;5251956;28;20070;-73
2022/07/21 08:30:12;;;;;;;67.57;29.08;;;;;;;17.42;100.00;101868.47;5259146;28;20508;-73
2022/07/21 08:32:43;;;;;;;53.63;24.88;;;;;;;17.42;100.00;101873.03;5265878;28;20046;-73
2022/07/21 08:35:14;;;;;;;50.92;24.75;;;;;;;17.42;100.00;101876.59;5251720;28;20032;-73
2022/07/21 08:37:56;;;;;;;43.85;23.35;;;;;;;17.43;100.00;101874.72;5266032;28;20486;-73
2022/07/21 08:40:29;;;;;;;44.92;22.77;;;;;;;17.40;100.00;101877.81;5252181;28;20505;-74
2022/07/21 08:43:00;;;;;;;43.08;22.40;;;;;;;17.40;100.00;101877.81;5266244;28;20094;-73
2022/07/21 08:45:30;;;;;;;39.88;20.55;;;;;;;17.44;100.00;101879.97;5265637;28;20028;-74
2022/07/21 08:48:01;;;;;;;43.05;21.67;;;;;;;17.41;100.00;101877.59;5251921;28;20040;-73
2022/07/21 08:50:35;;;;;;;35.30;19.77;;;;;;;17.41;100.00;101879.47;5253098;28;20031;-73
2022/07/21 08:53:07;;;;;;;45.70;23.45;;;;;;;17.39;100.00;101885.09;5263414;28;20032;-73
2022/07/21 08:55:39;;;;;;;46.10;23.50;;;;;;;17.40;100.00;101875.09;5252189;28;20020;-73
2022/07/21 08:58:11;;;;;;;42.40;23.38;;;;;;;17.43;100.00;101883.69;5244750;28;20386;-73
2022/07/21 09:00:46;;;;;;;46.90;25.13;;;;;;;17.46;100.00;101883.31;5256643;28;20036;-73
2022/07/21 09:03:22;;;;;;;44.10;23.65;;;;;;;17.50;100.00;101884.63;5245470;28;20035;-73
2022/07/21 09:06:14;;;;;;;42.45;22.55;;;;;;;17.59;100.00;101886.22;5259508;28;20111;-73
2022/07/21 09:08:47;;;;;;;34.67;21.48;;;;;;;17.59;100.00;101888.09;5254000;28;20048;-73
2022/07/21 09:11:19;;;;;;;35.35;21.00;;;;;;;17.59;100.00;101888.09;5264078;28;20016;-73
2022/07/21 09:14:08;;;;;;;31.52;19.85;;;;;;;17.60;100.00;101893.34;5266690;28;20122;-73
2022/07/21 09:16:43;;;;;;;28.40;18.33;;;;;;;17.58;100.00;101889.13;5247605;28;20111;-73
2022/07/21 09:19:28;;;;;;;24.77;17.58;;;;;;;17.54;100.00;101885.94;5251862;28;20067;-73
2022/07/21 09:22:01;;;;;;;31.88;18.35;;;;;;;17.50;100.00;101900.91;5243828;28;20024;-73
2022/07/21 09:24:38;;;;;;;36.70;20.90;;;;;;;17.48;100.00;101905.69;5248426;28;20111;-73
2022/07/21 09:27:12;;;;;;;33.13;20.38;;;;;;;17.42;100.00;101906.44;5256869;28;20024;-73
2022/07/21 09:29:44;;;;;;;37.25;20.67;;;;;;;17.41;100.00;101906.59;5259372;28;20020;-73
2022/07/21 09:32:36;;;;;;;33.10;20.40;;;;;;;17.43;100.00;101907.28;5252445;28;20020;-72
2022/07/21 09:35:09;;;;;;;38.83;20.80;;;;;;;17.42;100.00;101909.16;5268987;28;20082;-72
2022/07/21 09:37:41;;;;;;;38.60;22.20;;;;;;;17.42;100.00;101914.56;5260704;28;20021;-72
2022/07/21 09:40:13;;;;;;;42.88;24.17;;;;;;;17.43;100.00;101910.00;5250961;28;20474;-72
2022/07/21 09:42:50;;;;;;;43.53;24.02;;;;;;;17.48;100.00;101915.69;5258907;28;20101;-73
2022/07/21 09:45:20;;;;;;;40.22;24.40;;;;;;;17.50;100.00;101914.47;5265135;28;20028;-73
2022/07/21 09:47:51;;;;;;;49.70;23.60;;;;;;;17.52;100.00;101922.41;5268969;28;20390;-72
2022/07/21 09:50:21;;;;;;;42.28;23.50;;;;;;;17.63;100.00;101916.56;5263650;28;20032;-72
2022/07/21 09:52:54;;;;;;;46.38;24.30;;;;;;;17.73;100.00;101928.00;5261330;28;20029;-72
2022/07/21 09:55:25;;;;;;;44.65;24.27;;;;;;;17.91;100.00;101919.47;5233827;28;20040;-72
2022/07/21 09:57:58;;;;;;;41.17;22.83;;;;;;;18.04;100.00;101919.63;5249245;28;20025;-72
2022/07/21 10:00:29;;;;;;;38.95;21.95;;;;;;;18.07;100.00;101927.41;5268934;28;20113;-72
2022/07/21 10:03:03;;;;;;;28.83;18.55;;;;;;;18.22;100.00;101937.38;5260674;28;20044;-72
2022/07/21 10:05:35;;;;;;;28.13;16.98;;;;;;;18.33;100.00;101928.78;5250875;28;20027;-72
2022/07/21 10:08:06;;;;;;;28.33;16.40;;;;;;;18.51;100.00;101931.88;5268144;28;20038;-72
2022/07/21 10:10:36;;;;;;;32.45;15.98;;;;;;;18.54;100.00;101928.78;5268966;28;20027;-72
2022/07/21 10:13:07;;;;;;;26.02;16.83;;;;;;;18.64;100.00;101932.03;5268586;28;20393;-72
2022/07/21 10:15:39;;;;;;;29.23;17.40;;;;;;;18.64;100.00;101937.47;5268144;28;20381;-73
2022/07/21 10:18:12;;;;;;;33.80;15.23;;;;;;;18.73;100.00;101938.22;5260017;28;20513;-73
2022/07/21 10:20:48;;;;;;;32.45;17.15;;;;;;;18.91;100.00;101932.31;5252583;28;20545;-72
2022/07/21 10:23:35;;;;;;;28.77;15.68;;;;;;;19.14;100.00;101940.28;5258689;28;20028;-73
2022/07/21 10:26:06;;;;;;;26.40;15.77;;;;;;;19.42;100.00;101934.84;5265301;28;20032;-72
2022/07/21 10:28:37;;;;;;;29.48;15.38;;;;;;;19.65;100.00;101937.34;5246961;28;20035;-72
2022/07/21 10:31:20;;;;;;;27.33;15.20;;;;;;;19.92;100.00;101930.16;5247292;28;20032;-72
2022/07/21 10:33:52;;;;;;;26.77;14.70;;;;;;;19.82;100.00;101941.41;5247406;28;20056;-72
2022/07/21 10:36:41;;;;;;;21.77;13.25;;;;;;;19.64;100.00;101939.22;5247042;28;20028;-72
2022/07/21 10:39:17;;;;;;;22.23;12.80;;;;;;;19.44;100.00;101940.94;5254550;28;20028;-72
2022/07/21 10:42:24;;;;;;;22.33;13.32;;;;;;;19.24;100.00;101948.94;5252421;28;20475;-72
2022/07/21 10:44:55;;;;;;;27.23;13.93;;;;;;;19.09;100.00;101950.91;5260523;28;20060;-72
2022/07/21 10:47:30;;;;;;;24.10;14.18;;;;;;;18.98;100.00;101954.16;5255324;28;20103;-72
2022/07/21 10:50:04;;;;;;;28.40;16.25;;;;;;;18.86;100.00;101951.09;5254561;28;20031;-72
2022/07/21 10:52:34;;;;;;;30.63;17.02;;;;;;;18.64;100.00;101956.50;5267802;28;20024;-72
2022/07/21 10:55:23;;;;;;;28.48;17.73;;;;;;;18.44;100.00;101962.75;5267471;28;20051;-72
2022/07/21 10:58:31;;;;;;;33.95;18.88;;;;;;;18.28;100.00;101971.97;5240376;28;20421;-72
2022/07/21 11:01:06;;;;;;;40.17;21.23;;;;;;;18.19;100.00;101978.53;5260121;28;20024;-72
2022/07/21 11:03:39;;;;;;;35.40;19.83;;;;;;;18.13;100.00;101971.97;5238215;28;20549;-72
2022/07/21 11:06:15;;;;;;;36.60;19.58;;;;;;;18.09;100.00;101973.38;5259102;28;20028;-72
2022/07/21 11:08:47;;;;;;;33.88;19.33;;;;;;;18.02;100.00;101973.31;5256289;28;20501;-72
2022/07/21 11:11:23;;;;;;;35.67;17.70;;;;;;;18.14;100.00;101984.53;5252334;28;20435;-72
2022/07/21 11:14:12;;;;;;;;;;;;;;;18.10;100.00;101983.22;5254024;28;20029;-72
2022/07/21 11:16:43;;;;;;;34.42;16.38;;;;;;;18.14;100.00;101978.25;5246450;28;19909;-72
2022/07/21 11:19:35;;;;;;;30.70;17.25;;;;;;;18.17;100.00;101988.72;5264279;28;20107;-71
2022/07/21 11:22:06;;;;;;;26.02;15.43;;;;;;;18.24;100.00;101990.50;5256132;28;20039;-72
2022/07/21 11:24:38;;;;;;;27.75;13.57;;;;;;;18.25;100.00;101992.19;5246055;28;20025;-71
2022/07/21 11:27:28;;;;;;;23.67;13.20;;;;;;;18.20;100.00;101993.78;5248396;28;20036;-71